Madeline — WDE3220 — position and weather

sailwx.info

Track history (hours):
 
Tides and Currents Weather Stations Pressure Air Temp Water Temp Dewpoint Dewpoint Depression Visibility Wind Speed Wind Dir Waves Ship Positions

Madeline

Owner: TUG MADELINE, LLC, NEW CASTLE, DE. More information available from US FCC via Universal Licensing System and Coast Guard Vessel Documentation Center.

Last reported at 2014-Nov-22 13:19 UTC. Time now 2014-Nov-23 22:28 UTC.
Position N 39°50' W 075°23'.

; draft 4.6 m.

Type: Tug. MMSI: 367335830.

Date/timePositionNaut miles runAvg speedWind from/ knotsBaromVisibWave heightAir tempDewpointWater temp
2014-Nov-22 13:19N 39°50' W 075°23'  
2014-Nov-17 14:26N 39°49' W 075°25'0 0.0
2014-Nov-17 13:32N 39°49' W 075°25'  
2014-Nov-14 19:11N 39°48' W 075°26'6 0.2
2014-Nov-13 04:28N 39°43' W 075°31'0 0.3
2014-Nov-13 03:24N 39°43' W 075°31'0 0.1
2014-Nov-13 02:32N 39°43' W 075°31'0 0.0
2014-Nov-13 01:33N 39°43' W 075°31'0 0.2
2014-Nov-13 00:31N 39°43' W 075°31'0 0.1
2014-Nov-12 23:14N 39°43' W 075°31'3 3.9
2014-Nov-12 22:33N 39°40' W 075°32'6 6.1
2014-Nov-12 21:34N 39°35' W 075°36'2 2.2
2014-Nov-12 20:33N 39°34' W 075°33'8 8.2
2014-Nov-12 19:33N 39°42' W 075°31'1 1.1
2014-Nov-12 18:33N 39°43' W 075°31'0 0.0
2014-Nov-12 17:32N 39°43' W 075°31'  
Track history (hours):
 
Tides and Currents Weather Stations Pressure Air Temp Water Temp Dewpoint Dewpoint Depression Visibility Wind Speed Wind Dir Waves Ship Positions

Madeline

Owner: TUG MADELINE, LLC, NEW CASTLE, DE. More information available from US FCC via Universal Licensing System and Coast Guard Vessel Documentation Center.

Last reported at 2014-Nov-22 13:19 UTC. Time now 2014-Nov-23 22:28 UTC.
Position N 39°50' W 075°23'.

; draft 4.6 m.

Type: Tug. MMSI: 367335830.

Date/timePositionNaut miles runAvg speedWind from/ knotsBaromVisibWave heightAir tempDewpointWater temp
2014-Nov-22 13:19N 39°50' W 075°23'  
2014-Nov-17 14:26N 39°49' W 075°25'0 0.0
2014-Nov-17 13:32N 39°49' W 075°25'  
2014-Nov-14 19:11N 39°48' W 075°26'6 0.2
2014-Nov-13 04:28N 39°43' W 075°31'0 0.3
2014-Nov-13 03:24N 39°43' W 075°31'0 0.1
2014-Nov-13 02:32N 39°43' W 075°31'0 0.0
2014-Nov-13 01:33N 39°43' W 075°31'0 0.2
2014-Nov-13 00:31N 39°43' W 075°31'0 0.1
2014-Nov-12 23:14N 39°43' W 075°31'3 3.9
2014-Nov-12 22:33N 39°40' W 075°32'6 6.1
2014-Nov-12 21:34N 39°35' W 075°36'2 2.2
2014-Nov-12 20:33N 39°34' W 075°33'8 8.2
2014-Nov-12 19:33N 39°42' W 075°31'1 1.1
2014-Nov-12 18:33N 39°43' W 075°31'0 0.0
2014-Nov-12 17:32N 39°43' W 075°31'  

Dump ship's entire track history